sensor_id;sensor_type;location;lat;lon;timestamp;pressure;altitude;pressure_sealevel;temperature;humidity
8069;BME280;4077;43.702;24.896;2023-06-14T00:00:38;99192.84;;;18.25;100.00
8069;BME280;4077;43.702;24.896;2023-06-14T00:03:06;99207.56;;;18.29;100.00
8069;BME280;4077;43.702;24.896;2023-06-14T00:05:35;99205.84;;;18.28;100.00
8069;BME280;4077;43.702;24.896;2023-06-14T00:08:06;99203.41;;;18.20;100.00
8069;BME280;4077;43.702;24.896;2023-06-14T00:10:34;99201.75;;;18.16;100.00
8069;BME280;4077;43.702;24.896;2023-06-14T00:13:01;99205.16;;;18.20;100.00
8069;BME280;4077;43.702;24.896;2023-06-14T00:15:27;99208.81;;;18.13;100.00
8069;BME280;4077;43.702;24.896;2023-06-14T00:17:53;99205.41;;;18.09;100.00
8069;BME280;4077;43.702;24.896;2023-06-14T00:20:20;99197.63;;;18.08;100.00
8069;BME280;4077;43.702;24.896;2023-06-14T00:22:46;99190.59;;;18.10;100.00
8069;BME280;4077;43.702;24.896;2023-06-14T00:25:11;99201.91;;;18.10;100.00
8069;BME280;4077;43.702;24.896;2023-06-14T00:27:37;99188.16;;;18.02;100.00
8069;BME280;4077;43.702;24.896;2023-06-14T00:30:03;99199.34;;;18.09;100.00
8069;BME280;4077;43.702;24.896;2023-06-14T00:32:28;99170.94;;;17.95;100.00
8069;BME280;4077;43.702;24.896;2023-06-14T00:34:54;99189.78;;;18.08;100.00
8069;BME280;4077;43.702;24.896;2023-06-14T00:37:19;99168.28;;;17.96;100.00
8069;BME280;4077;43.702;24.896;2023-06-14T00:39:45;99173.44;;;17.99;100.00
8069;BME280;4077;43.702;24.896;2023-06-14T00:42:10;99182.81;;;18.08;100.00
8069;BME280;4077;43.702;24.896;2023-06-14T00:44:36;99175.91;;;18.06;100.00
8069;BME280;4077;43.702;24.896;2023-06-14T00:47:01;99169.75;;;18.08;100.00
8069;BME280;4077;43.702;24.896;2023-06-14T00:49:27;99170.59;;;18.09;100.00
8069;BME280;4077;43.702;24.896;2023-06-14T00:51:54;99157.63;;;18.06;100.00
8069;BME280;4077;43.702;24.896;2023-06-14T00:54:20;99168.06;;;18.06;100.00
8069;BME280;4077;43.702;24.896;2023-06-14T00:56:45;99169.75;;;18.08;100.00
8069;BME280;4077;43.702;24.896;2023-06-14T00:59:11;99171.50;;;18.08;100.00
8069;BME280;4077;43.702;24.896;2023-06-14T01:01:37;99154.31;;;17.97;100.00
8069;BME280;4077;43.702;24.896;2023-06-14T01:04:04;99172.44;;;18.03;100.00
8069;BME280;4077;43.702;24.896;2023-06-14T01:09:54;99186.31;;;18.07;100.00
8069;BME280;4077;43.702;24.896;2023-06-14T01:12:48;99188.97;;;18.06;100.00
8069;BME280;4077;43.702;24.896;2023-06-14T01:15:15;99192.63;;;17.98;100.00
8069;BME280;4077;43.702;24.896;2023-06-14T01:17:42;99163.41;;;17.81;100.00
8069;BME280;4077;43.702;24.896;2023-06-14T01:20:14;99184.94;;;17.91;100.00
8069;BME280;4077;43.702;24.896;2023-06-14T01:22:52;99179.66;;;17.94;100.00
8069;BME280;4077;43.702;24.896;2023-06-14T01:25:19;99185.75;;;17.94;100.00
8069;BME280;4077;43.702;24.896;2023-06-14T01:27:59;99164.19;;;17.86;100.00
8069;BME280;4077;43.702;24.896;2023-06-14T01:30:26;99181.28;;;17.98;100.00
8069;BME280;4077;43.702;24.896;2023-06-14T01:32:54;99179.56;;;17.98;100.00
8069;BME280;4077;43.702;24.896;2023-06-14T01:35:21;99169.25;;;17.92;100.00
8069;BME280;4077;43.702;24.896;2023-06-14T01:37:48;99173.63;;;17.90;100.00
8069;BME280;4077;43.702;24.896;2023-06-14T01:40:15;99181.34;;;17.96;100.00
8069;BME280;4077;43.702;24.896;2023-06-14T01:42:41;99187.41;;;17.97;100.00
8069;BME280;4077;43.702;24.896;2023-06-14T01:45:09;99189.16;;;17.96;100.00
8069;BME280;4077;43.702;24.896;2023-06-14T01:47:35;99164.22;;;17.85;100.00
8069;BME280;4077;43.702;24.896;2023-06-14T01:50:04;99180.69;;;17.87;100.00
8069;BME280;4077;43.702;24.896;2023-06-14T01:52:30;99177.28;;;17.83;100.00
8069;BME280;4077;43.702;24.896;2023-06-14T01:54:56;99182.47;;;17.86;100.00
8069;BME280;4077;43.702;24.896;2023-06-14T01:57:23;99182.38;;;17.89;100.00
8069;BME280;4077;43.702;24.896;2023-06-14T01:59:49;99192.03;;;17.86;100.00
8069;BME280;4077;43.702;24.896;2023-06-14T02:02:15;99189.53;;;17.81;100.00
8069;BME280;4077;43.702;24.896;2023-06-14T02:04:41;99149.28;;;17.49;100.00
8069;BME280;4077;43.702;24.896;2023-06-14T02:07:06;99172.47;;;17.63;100.00
8069;BME280;4077;43.702;24.896;2023-06-14T02:09:33;99198.34;;;17.75;100.00
8069;BME280;4077;43.702;24.896;2023-06-14T02:11:59;99197.56;;;17.72;100.00
8069;BME280;4077;43.702;24.896;2023-06-14T02:14:24;99195.75;;;17.75;100.00
8069;BME280;4077;43.702;24.896;2023-06-14T02:16:50;99192.28;;;17.75;100.00
8069;BME280;4077;43.702;24.896;2023-06-14T02:19:16;99197.44;;;17.76;100.00
8069;BME280;4077;43.702;24.896;2023-06-14T02:21:42;99194.09;;;17.70;100.00
8069;BME280;4077;43.702;24.896;2023-06-14T02:24:07;99201.16;;;17.66;100.00
8069;BME280;4077;43.702;24.896;2023-06-14T02:26:33;99165.81;;;17.52;100.00
8069;BME280;4077;43.702;24.896;2023-06-14T02:28:59;99195.09;;;17.64;100.00
8069;BME280;4077;43.702;24.896;2023-06-14T02:31:25;99202.09;;;17.62;100.00
8069;BME280;4077;43.702;24.896;2023-06-14T02:33:50;99201.31;;;17.59;100.00
8069;BME280;4077;43.702;24.896;2023-06-14T02:36:16;99206.72;;;17.91;100.00
8069;BME280;4077;43.702;24.896;2023-06-14T02:38:42;99200.41;;;17.60;100.00
8069;BME280;4077;43.702;24.896;2023-06-14T02:41:07;99200.63;;;17.50;100.00
8069;BME280;4077;43.702;24.896;2023-06-14T02:43:33;99207.53;;;17.53;100.00
8069;BME280;4077;43.702;24.896;2023-06-14T02:45:58;99213.38;;;17.64;100.00
8069;BME280;4077;43.702;24.896;2023-06-14T02:48:24;99215.34;;;17.53;100.00
8069;BME280;4077;43.702;24.896;2023-06-14T02:50:49;99204.25;;;17.43;100.00
8069;BME280;4077;43.702;24.896;2023-06-14T02:53:15;99220.56;;;17.53;100.00
8069;BME280;4077;43.702;24.896;2023-06-14T02:55:41;99224.84;;;17.56;100.00
8069;BME280;4077;43.702;24.896;2023-06-14T02:58:06;99231.75;;;17.60;100.00
8069;BME280;4077;43.702;24.896;2023-06-14T03:00:32;99226.28;;;17.70;100.00
8069;BME280;4077;43.702;24.896;2023-06-14T03:02:58;99241.97;;;17.69;100.00
8069;BME280;4077;43.702;24.896;2023-06-14T03:05:26;99236.88;;;17.63;100.00
8069;BME280;4077;43.702;24.896;2023-06-14T03:07:53;99231.75;;;17.60;100.00
8069;BME280;4077;43.702;24.896;2023-06-14T03:10:19;99235.25;;;17.59;100.00
8069;BME280;4077;43.702;24.896;2023-06-14T03:12:44;99240.34;;;17.65;100.00
8069;BME280;4077;43.702;24.896;2023-06-14T03:15:10;99242.19;;;17.60;100.00
8069;BME280;4077;43.702;24.896;2023-06-14T03:17:38;99237.09;;;17.54;100.00
8069;BME280;4077;43.702;24.896;2023-06-14T03:20:04;99243.84;;;17.62;100.00
8069;BME280;4077;43.702;24.896;2023-06-14T03:22:30;99223.38;;;17.42;100.00
8069;BME280;4077;43.702;24.896;2023-06-14T03:24:57;99235.50;;;17.46;100.00
8069;BME280;4077;43.702;24.896;2023-06-14T03:27:24;99248.38;;;17.54;100.00
8069;BME280;4077;43.702;24.896;2023-06-14T03:29:50;99243.97;;;17.58;100.00
8069;BME280;4077;43.702;24.896;2023-06-14T03:32:16;99239.69;;;17.54;100.00
8069;BME280;4077;43.702;24.896;2023-06-14T03:34:41;99253.44;;;17.62;100.00
8069;BME280;4077;43.702;24.896;2023-06-14T03:37:07;99241.28;;;17.61;100.00
8069;BME280;4077;43.702;24.896;2023-06-14T03:39:33;99252.50;;;17.66;100.00
8069;BME280;4077;43.702;24.896;2023-06-14T03:41:58;99248.13;;;17.66;100.00
8069;BME280;4077;43.702;24.896;2023-06-14T03:44:26;99260.16;;;17.75;100.00
8069;BME280;4077;43.702;24.896;2023-06-14T03:46:52;99243.75;;;17.67;100.00
8069;BME280;4077;43.702;24.896;2023-06-14T03:49:17;99260.16;;;17.75;100.00
8069;BME280;4077;43.702;24.896;2023-06-14T03:51:43;99263.59;;;17.77;100.00
8069;BME280;4077;43.702;24.896;2023-06-14T03:54:08;99254.13;;;17.73;100.00
8069;BME280;4077;43.702;24.896;2023-06-14T03:56:34;99260.13;;;17.76;100.00
8069;BME280;4077;43.702;24.896;2023-06-14T03:59:00;99248.84;;;17.74;100.00
8069;BME280;4077;43.702;24.896;2023-06-14T04:01:25;99243.69;;;17.73;100.00
8069;BME280;4077;43.702;24.896;2023-06-14T04:03:57;99262.63;;;17.81;100.00
8069;BME280;4077;43.702;24.896;2023-06-14T04:06:23;99263.44;;;17.83;100.00
8069;BME280;4077;43.702;24.896;2023-06-14T04:08:51;99260.75;;;17.88;100.00
8069;BME280;4077;43.702;24.896;2023-06-14T04:11:17;99258.09;;;17.89;100.00
8069;BME280;4077;43.702;24.896;2023-06-14T04:13:44;99245.13;;;17.86;100.00
8069;BME280;4077;43.702;24.896;2023-06-14T04:16:09;99264.00;;;17.97;100.00
8069;BME280;4077;43.702;24.896;2023-06-14T04:18:34;99262.44;;;17.90;100.00
8069;BME280;4077;43.702;24.896;2023-06-14T04:21:00;99260.16;;;17.75;100.00
8069;BME280;4077;43.702;24.896;2023-06-14T04:23:26;99262.50;;;17.87;100.00
8069;BME280;4077;43.702;24.896;2023-06-14T04:25:53;99266.78;;;17.90;100.00
8069;BME280;4077;43.702;24.896;2023-06-14T04:28:19;99254.88;;;17.76;100.00
8069;BME280;4077;43.702;24.896;2023-06-14T04:30:44;99264.56;;;17.73;100.00
8069;BME280;4077;43.702;24.896;2023-06-14T04:33:10;99270.38;;;17.84;100.00
8069;BME280;4077;43.702;24.896;2023-06-14T04:35:36;99276.25;;;17.95;100.00
8069;BME280;4077;43.702;24.896;2023-06-14T04:38:03;99274.41;;;18.00;100.00
8069;BME280;4077;43.702;24.896;2023-06-14T04:40:30;99279.84;;;17.91;100.00
8069;BME280;4077;43.702;24.896;2023-06-14T04:42:56;99278.22;;;17.84;100.00
8069;BME280;4077;43.702;24.896;2023-06-14T04:45:23;99278.22;;;17.84;100.00
8069;BME280;4077;43.702;24.896;2023-06-14T04:47:49;99282.63;;;17.82;100.00
8069;BME280;4077;43.702;24.896;2023-06-14T04:50:15;99274.91;;;17.76;100.00
8069;BME280;4077;43.702;24.896;2023-06-14T04:52:43;99266.38;;;17.68;100.00
8069;BME280;4077;43.702;24.896;2023-06-14T04:55:09;99285.19;;;17.85;100.00
8069;BME280;4077;43.702;24.896;2023-06-14T04:57:35;99275.59;;;17.86;100.00
8069;BME280;4077;43.702;24.896;2023-06-14T05:00:00;99288.28;;;18.02;100.00
8069;BME280;4077;43.702;24.896;2023-06-14T05:02:29;99278.81;;;17.97;100.00
8069;BME280;4077;43.702;24.896;2023-06-14T05:04:56;99291.53;;;18.14;100.00
8069;BME280;4077;43.702;24.896;2023-06-14T05:07:22;99295.72;;;18.21;100.00
8069;BME280;4077;43.702;24.896;2023-06-14T05:09:49;99291.31;;;18.23;100.00
8069;BME280;4077;43.702;24.896;2023-06-14T05:12:15;99283.66;;;18.15;100.00
8069;BME280;4077;43.702;24.896;2023-06-14T05:14:43;99294.53;;;17.95;100.00
8069;BME280;4077;43.702;24.896;2023-06-14T05:17:09;99296.91;;;18.06;100.00
8069;BME280;4077;43.702;24.896;2023-06-14T05:19:35;99303.91;;;18.04;100.00
8069;BME280;4077;43.702;24.896;2023-06-14T05:22:01;99307.53;;;17.98;100.00
8069;BME280;4077;43.702;24.896;2023-06-14T05:24:28;99291.72;;;18.04;100.00
8069;BME280;4077;43.702;24.896;2023-06-14T05:26:56;99297.66;;;18.13;100.00
8069;BME280;4077;43.702;24.896;2023-06-14T05:29:21;99300.97;;;18.19;100.00
8069;BME280;4077;43.702;24.896;2023-06-14T05:31:46;99300.00;;;18.23;100.00
8069;BME280;4077;43.702;24.896;2023-06-14T05:34:12;99319.81;;;18.32;100.00
8069;BME280;4077;43.702;24.896;2023-06-14T05:36:37;99295.44;;;18.31;100.00
8069;BME280;4077;43.702;24.896;2023-06-14T05:39:04;99321.50;;;18.36;100.00
8069;BME280;4077;43.702;24.896;2023-06-14T05:41:31;99316.22;;;18.39;100.00
8069;BME280;4077;43.702;24.896;2023-06-14T05:43:56;99317.06;;;18.38;100.00
8069;BME280;4077;43.702;24.896;2023-06-14T05:46:23;99323.03;;;18.45;100.00
8069;BME280;4077;43.702;24.896;2023-06-14T05:48:54;99326.31;;;18.54;100.00
8069;BME280;4077;43.702;24.896;2023-06-14T05:51:20;99308.97;;;18.50;100.00
8069;BME280;4077;43.702;24.896;2023-06-14T05:53:49;99317.63;;;18.52;100.00
8069;BME280;4077;43.702;24.896;2023-06-14T05:56:15;99316.66;;;18.56;100.00
8069;BME280;4077;43.702;24.896;2023-06-14T05:58:43;99319.19;;;18.59;100.00
8069;BME280;4077;43.702;24.896;2023-06-14T06:01:09;99318.19;;;18.67;100.00
8069;BME280;4077;43.702;24.896;2023-06-14T06:03:34;99311.44;;;18.56;100.00
8069;BME280;4077;43.702;24.896;2023-06-14T06:06:00;99314.75;;;18.63;100.00
8069;BME280;4077;43.702;24.896;2023-06-14T06:08:26;99306.97;;;18.62;100.00
8069;BME280;4077;43.702;24.896;2023-06-14T06:10:52;99306.81;;;18.69;100.00
8069;BME280;4077;43.702;24.896;2023-06-14T06:13:18;99312.88;;;18.70;100.00
8069;BME280;4077;43.702;24.896;2023-06-14T06:15:43;99307.66;;;18.70;100.00
8069;BME280;4077;43.702;24.896;2023-06-14T06:18:09;99312.97;;;18.67;100.00
8069;BME280;4077;43.702;24.896;2023-06-14T06:20:34;99321.75;;;18.63;100.00
8069;BME280;4077;43.702;24.896;2023-06-14T06:23:01;99318.06;;;18.71;100.00
8069;BME280;4077;43.702;24.896;2023-06-14T06:25:27;99322.38;;;18.74;100.00
8069;BME280;4077;43.702;24.896;2023-06-14T06:27:56;99318.13;;;18.70;100.00
8069;BME280;4077;43.702;24.896;2023-06-14T06:30:22;99321.69;;;18.64;100.00
8069;BME280;4077;43.702;24.896;2023-06-14T06:36:08;99341.00;;;18.60;100.00
8069;BME280;4077;43.702;24.896;2023-06-14T06:38:34;99334.28;;;18.48;100.00
8069;BME280;4077;43.702;24.896;2023-06-14T06:41:00;99341.34;;;18.43;100.00
8069;BME280;4077;43.702;24.896;2023-06-14T06:43:25;99337.94;;;18.41;100.00
8069;BME280;4077;43.702;24.896;2023-06-14T06:45:51;99347.31;;;18.50;100.00
8069;BME280;4077;43.702;24.896;2023-06-14T06:48:16;99343.94;;;18.45;100.00
8069;BME280;4077;43.702;24.896;2023-06-14T06:50:42;99350.19;;;18.39;100.00
8069;BME280;4077;43.702;24.896;2023-06-14T06:53:07;99352.88;;;18.35;100.00
8069;BME280;4077;43.702;24.896;2023-06-14T06:55:33;99334.63;;;18.33;100.00
8069;BME280;4077;43.702;24.896;2023-06-14T06:57:58;99350.00;;;18.47;100.00
8069;BME280;4077;43.702;24.896;2023-06-14T07:00:25;99352.50;;;18.51;100.00
8069;BME280;4077;43.702;24.896;2023-06-14T07:02:50;99351.63;;;18.51;100.00
8069;BME280;4077;43.702;24.896;2023-06-14T07:05:16;99347.25;;;18.51;100.00
8069;BME280;4077;43.702;24.896;2023-06-14T07:07:41;99349.88;;;18.51;100.00
8069;BME280;4077;43.702;24.896;2023-06-14T07:10:07;99352.03;;;18.34;100.00
8069;BME280;4077;43.702;24.896;2023-06-14T07:12:32;99362.47;;;18.34;100.00
8069;BME280;4077;43.702;24.896;2023-06-14T07:14:59;99356.41;;;18.34;100.00
8069;BME280;4077;43.702;24.896;2023-06-14T07:17:25;99356.16;;;18.44;100.00
8069;BME280;4077;43.702;24.896;2023-06-14T07:19:51;99363.63;;;18.59;100.00
8069;BME280;4077;43.702;24.896;2023-06-14T07:22:16;99358.19;;;18.70;100.00
8069;BME280;4077;43.702;24.896;2023-06-14T07:24:42;99370.13;;;18.82;100.00
8069;BME280;4077;43.702;24.896;2023-06-14T07:27:08;99350.25;;;18.75;100.00
8069;BME280;4077;43.702;24.896;2023-06-14T07:29:34;99362.66;;;18.67;100.00
8069;BME280;4077;43.702;24.896;2023-06-14T07:31:59;99357.50;;;18.62;100.00
8069;BME280;4077;43.702;24.896;2023-06-14T07:34:25;99375.72;;;18.67;100.00
8069;BME280;4077;43.702;24.896;2023-06-14T07:36:51;99365.47;;;18.56;100.00
8069;BME280;4077;43.702;24.896;2023-06-14T07:39:16;99362.41;;;18.37;100.00
8069;BME280;4077;43.702;24.896;2023-06-14T07:41:42;99358.72;;;18.47;100.00
8069;BME280;4077;43.702;24.896;2023-06-14T07:44:07;99349.28;;;18.40;100.00
8069;BME280;4077;43.702;24.896;2023-06-14T07:46:33;99363.72;;;18.56;100.00
8069;BME280;4077;43.702;24.896;2023-06-14T07:48:59;99353.66;;;18.38;100.00
8069;BME280;4077;43.702;24.896;2023-06-14T07:51:25;99363.72;;;18.56;100.00
8069;BME280;4077;43.702;24.896;2023-06-14T07:53:50;99361.00;;;18.59;100.00
8069;BME280;4077;43.702;24.896;2023-06-14T07:56:16;99353.97;;;18.63;100.00
8069;BME280;4077;43.702;24.896;2023-06-14T07:58:41;99360.34;;;18.51;100.00
8069;BME280;4077;43.702;24.896;2023-06-14T08:01:07;99348.56;;;18.32;100.00
8069;BME280;4077;43.702;24.896;2023-06-14T08:03:33;99356.81;;;18.52;100.00
8069;BME280;4077;43.702;24.896;2023-06-14T08:05:59;99363.72;;;18.56;100.00
8069;BME280;4077;43.702;24.896;2023-06-14T08:08:26;99369.31;;;18.78;100.00
8069;BME280;4077;43.702;24.896;2023-06-14T08:10:51;99366.16;;;19.01;100.00
8069;BME280;4077;43.702;24.896;2023-06-14T08:13:17;99364.81;;;19.19;100.00
8069;BME280;4077;43.702;24.896;2023-06-14T08:15:42;99368.78;;;19.35;100.00
8069;BME280;4077;43.702;24.896;2023-06-14T08:18:08;99369.34;;;19.47;100.00
8069;BME280;4077;43.702;24.896;2023-06-14T08:20:33;99368.09;;;19.61;100.00
8069;BME280;4077;43.702;24.896;2023-06-14T08:23:00;99382.13;;;19.90;100.00
8069;BME280;4077;43.702;24.896;2023-06-14T08:25:25;99367.09;;;19.98;100.00
8069;BME280;4077;43.702;24.896;2023-06-14T08:27:51;99333.16;;;19.93;100.00
8069;BME280;4077;43.702;24.896;2023-06-14T08:30:17;99382.59;;;20.06;100.00
8069;BME280;4077;43.702;24.896;2023-06-14T08:32:43;99372.16;;;20.04;100.00
8069;BME280;4077;43.702;24.896;2023-06-14T08:35:08;99393.75;;;20.12;100.00
8069;BME280;4077;43.702;24.896;2023-06-14T08:37:40;99403.03;;;20.22;100.00
8069;BME280;4077;43.702;24.896;2023-06-14T08:40:26;99399.50;;;20.23;100.00
8069;BME280;4077;43.702;24.896;2023-06-14T08:42:53;99401.69;;;20.09;100.00
8069;BME280;4077;43.702;24.896;2023-06-14T08:45:20;99397.84;;;19.90;100.00
8069;BME280;4077;43.702;24.896;2023-06-14T08:47:47;99402.94;;;19.96;100.00
8069;BME280;4077;43.702;24.896;2023-06-14T08:50:24;99404.94;;;20.17;100.00
8069;BME280;4077;43.702;24.896;2023-06-14T08:52:56;99397.63;;;20.29;100.00
8069;BME280;4077;43.702;24.896;2023-06-14T08:55:27;99397.13;;;20.47;100.00
8069;BME280;4077;43.702;24.896;2023-06-14T08:57:57;99411.28;;;20.69;100.00
8069;BME280;4077;43.702;24.896;2023-06-14T09:00:24;99414.00;;;20.66;100.00
8069;BME280;4077;43.702;24.896;2023-06-14T09:02:51;99419.34;;;20.63;100.00
8069;BME280;4077;43.702;24.896;2023-06-14T09:05:22;99411.66;;;20.57;100.00
8069;BME280;4077;43.702;24.896;2023-06-14T09:07:48;99408.53;;;20.44;100.00
8069;BME280;4077;43.702;24.896;2023-06-14T09:10:16;99418.66;;;20.57;100.00
8069;BME280;4077;43.702;24.896;2023-06-14T09:12:42;99411.59;;;20.59;100.00
8069;BME280;4077;43.702;24.896;2023-06-14T09:15:08;99419.34;;;20.63;100.00
8069;BME280;4077;43.702;24.896;2023-06-14T09:17:38;99415.81;;;20.64;100.00
8069;BME280;4077;43.702;24.896;2023-06-14T09:20:05;99421.06;;;20.64;100.00
8069;BME280;4077;43.702;24.896;2023-06-14T09:22:42;99421.06;;;20.64;100.00
8069;BME280;4077;43.702;24.896;2023-06-14T09:25:08;99370.25;;;20.39;100.00
8069;BME280;4077;43.702;24.896;2023-06-14T09:27:34;99414.00;;;20.66;100.00
8069;BME280;4077;43.702;24.896;2023-06-14T09:30:02;99401.34;;;20.51;100.00
8069;BME280;4077;43.702;24.896;2023-06-14T09:32:28;99412.19;;;20.68;100.00
8069;BME280;4077;43.702;24.896;2023-06-14T09:34:53;99408.09;;;20.60;100.00
8069;BME280;4077;43.702;24.896;2023-06-14T09:37:32;99416.88;;;20.87;100.00
8069;BME280;4077;43.702;24.896;2023-06-14T09:39:58;99411.78;;;21.09;100.00
8069;BME280;4077;43.702;24.896;2023-06-14T09:42:24;99402.78;;;21.69;100.00
8069;BME280;4077;43.702;24.896;2023-06-14T09:44:54;99412.47;;;22.62;100.00
8069;BME280;4077;43.702;24.896;2023-06-14T09:47:21;99414.09;;;22.64;100.00
8069;BME280;4077;43.702;24.896;2023-06-14T09:49:47;99414.44;;;22.33;100.00
8069;BME280;4077;43.702;24.896;2023-06-14T09:52:16;99415.13;;;22.38;100.00
8069;BME280;4077;43.702;24.896;2023-06-14T09:54:43;99423.59;;;22.47;100.00
8069;BME280;4077;43.702;24.896;2023-06-14T09:57:10;99405.72;;;22.08;100.00
8069;BME280;4077;43.702;24.896;2023-06-14T09:59:44;99399.19;;;21.95;100.00
8069;BME280;4077;43.702;24.896;2023-06-14T10:02:36;99414.53;;;22.07;100.00
8069;BME280;4077;43.702;24.896;2023-06-14T10:05:07;99410.91;;;22.11;100.00
8069;BME280;4077;43.702;24.896;2023-06-14T10:07:52;99420.31;;;22.40;100.00
8069;BME280;4077;43.702;24.896;2023-06-14T10:10:19;99412.44;;;22.40;100.00
8069;BME280;4077;43.702;24.896;2023-06-14T10:12:45;99396.69;;;22.62;100.00
8069;BME280;4077;43.702;24.896;2023-06-14T10:15:30;99406.72;;;22.74;100.00
8069;BME280;4077;43.702;24.896;2023-06-14T10:18:05;99398.38;;;22.63;100.00
8069;BME280;4077;43.702;24.896;2023-06-14T10:20:48;99396.91;;;22.78;100.00
8069;BME280;4077;43.702;24.896;2023-06-14T10:23:19;99394.63;;;22.92;100.00
8069;BME280;4077;43.702;24.896;2023-06-14T10:25:50;99405.41;;;23.08;100.00
8069;BME280;4077;43.702;24.896;2023-06-14T10:28:22;99397.78;;;23.22;100.00
8069;BME280;4077;43.702;24.896;2023-06-14T10:33:31;99403.94;;;23.43;100.00
8069;BME280;4077;43.702;24.896;2023-06-14T10:38:36;99399.84;;;23.56;100.00
8069;BME280;4077;43.702;24.896;2023-06-14T10:41:03;99393.47;;;23.41;100.00
8069;BME280;4077;43.702;24.896;2023-06-14T10:43:32;99379.59;;;23.16;100.00
8069;BME280;4077;43.702;24.896;2023-06-14T10:46:17;99392.38;;;23.25;100.00
8069;BME280;4077;43.702;24.896;2023-06-14T10:48:44;99393.50;;;22.98;100.00
8069;BME280;4077;43.702;24.896;2023-06-14T10:51:19;99394.88;;;23.08;100.00
8069;BME280;4077;43.702;24.896;2023-06-14T10:53:46;99384.97;;;22.92;100.00
8069;BME280;4077;43.702;24.896;2023-06-14T10:56:31;99387.63;;;22.91;100.00
8069;BME280;4077;43.702;24.896;2023-06-14T10:58:58;99379.34;;;22.78;100.00
8069;BME280;4077;43.702;24.896;2023-06-14T11:01:36;99376.91;;;22.74;100.00
8069;BME280;4077;43.702;24.896;2023-06-14T11:04:11;99371.16;;;22.64;100.00
8069;BME280;4077;43.702;24.896;2023-06-14T11:12:00;99367.31;;;22.95;100.00
8069;BME280;4077;43.702;24.896;2023-06-14T11:14:30;99363.94;;;23.33;100.00
8069;BME280;4077;43.702;24.896;2023-06-14T11:16:56;99369.84;;;23.59;100.00
8069;BME280;4077;43.702;24.896;2023-06-14T11:19:21;99363.34;;;23.67;100.00
8069;BME280;4077;43.702;24.896;2023-06-14T11:21:48;99355.53;;;23.66;100.00
8069;BME280;4077;43.702;24.896;2023-06-14T11:24:14;99357.63;;;23.78;100.00
8069;BME280;4077;43.702;24.896;2023-06-14T11:26:40;99360.00;;;24.03;100.00
8069;BME280;4077;43.702;24.896;2023-06-14T11:29:06;99349.50;;;23.83;100.00
8069;BME280;4077;43.702;24.896;2023-06-14T11:31:31;99355.25;;;23.72;100.00
8069;BME280;4077;43.702;24.896;2023-06-14T11:33:58;99351.56;;;23.76;100.00
8069;BME280;4077;43.702;24.896;2023-06-14T11:36:29;99357.38;;;24.03;100.00
8069;BME280;4077;43.702;24.896;2023-06-14T11:39:13;99352.44;;;24.14;100.00
8069;BME280;4077;43.702;24.896;2023-06-14T11:41:40;99353.22;;;24.37;100.00
8069;BME280;4077;43.702;24.896;2023-06-14T11:44:07;99354.91;;;24.38;100.00
8069;BME280;4077;43.702;24.896;2023-06-14T11:46:33;99347.31;;;24.30;100.00
8069;BME280;4077;43.702;24.896;2023-06-14T11:48:58;99351.19;;;24.42;100.00
8069;BME280;4077;43.702;24.896;2023-06-14T11:51:24;99351.13;;;24.43;100.00
8069;BME280;4077;43.702;24.896;2023-06-14T11:53:50;99346.94;;;24.56;100.00
8069;BME280;4077;43.702;24.896;2023-06-14T11:56:16;99351.25;;;24.76;100.00
8069;BME280;4077;43.702;24.896;2023-06-14T11:58:45;99348.56;;;24.78;100.00
8069;BME280;4077;43.702;24.896;2023-06-14T12:01:16;99340.94;;;24.72;100.00
8069;BME280;4077;43.702;24.896;2023-06-14T12:03:47;99337.50;;;24.52;100.00
8069;BME280;4077;43.702;24.896;2023-06-14T12:06:13;99327.94;;;24.31;100.00
8069;BME280;4077;43.702;24.896;2023-06-14T12:08:40;99337.34;;;24.18;100.00
8069;BME280;4077;43.702;24.896;2023-06-14T12:11:14;99343.28;;;24.23;100.00
8069;BME280;4077;43.702;24.896;2023-06-14T12:13:41;99330.56;;;24.31;100.00
8069;BME280;4077;43.702;24.896;2023-06-14T12:16:11;99329.47;;;24.37;100.00
8069;BME280;4077;43.702;24.896;2023-06-14T12:18:38;99310.69;;;24.24;100.00
8069;BME280;4077;43.702;24.896;2023-06-14T12:21:07;99325.94;;;24.36;100.00
8069;BME280;4077;43.702;24.896;2023-06-14T12:23:42;99319.66;;;24.75;100.00
8069;BME280;4077;43.702;24.896;2023-06-14T12:26:07;99320.81;;;25.05;100.00
8069;BME280;4077;43.702;24.896;2023-06-14T12:28:33;99314.88;;;25.18;100.00
8069;BME280;4077;43.702;24.896;2023-06-14T12:30:58;99311.81;;;24.91;100.00
8069;BME280;4077;43.702;24.896;2023-06-14T12:33:24;99303.25;;;24.51;100.00
8069;BME280;4077;43.702;24.896;2023-06-14T12:35:50;99303.97;;;24.17;100.00
8069;BME280;4077;43.702;24.896;2023-06-14T12:38:16;99303.06;;;24.18;100.00
8069;BME280;4077;43.702;24.896;2023-06-14T12:40:42;99299.56;;;24.36;100.00
8069;BME280;4077;43.702;24.896;2023-06-14T12:43:07;99291.56;;;24.19;100.00
8069;BME280;4077;43.702;24.896;2023-06-14T12:45:33;99298.69;;;24.36;100.00
8069;BME280;4077;43.702;24.896;2023-06-14T12:47:58;99288.16;;;24.17;100.00
8069;BME280;4077;43.702;24.896;2023-06-14T12:50:24;99287.22;;;24.18;100.00
8069;BME280;4077;43.702;24.896;2023-06-14T12:52:50;99293.00;;;24.26;100.00
8069;BME280;4077;43.702;24.896;2023-06-14T12:55:15;99282.88;;;24.17;100.00
8069;BME280;4077;43.702;24.896;2023-06-14T12:57:41;99281.19;;;24.16;100.00
8069;BME280;4077;43.702;24.896;2023-06-14T13:00:07;99279.88;;;24.06;100.00
8069;BME280;4077;43.702;24.896;2023-06-14T13:02:33;99274.16;;;24.15;100.00
8069;BME280;4077;43.702;24.896;2023-06-14T13:04:58;99279.78;;;24.26;100.00
8069;BME280;4077;43.702;24.896;2023-06-14T13:07:24;99268.00;;;24.16;100.00
8069;BME280;4077;43.702;24.896;2023-06-14T13:09:50;99268.88;;;24.15;100.00
8069;BME280;4077;43.702;24.896;2023-06-14T13:12:15;99266.91;;;24.20;100.00
8069;BME280;4077;43.702;24.896;2023-06-14T13:14:41;99264.59;;;24.31;100.00
8069;BME280;4077;43.702;24.896;2023-06-14T13:17:08;99262.84;;;24.13;100.00